PWSweather.com
Personal Weather Stations
Station Observations
WISCHPK61
Green Bay Schmitt Park, Green Bay, WI 54311

Green Bay Schmitt ParkGreen Bay, WI 54311

Lat: 44.514277, Lon: -87.935067

Elevation: 735

Station Type: Acu Rite Pro Weather Center model 02032C

http://greenbayweathercam.com

High Low Average
Temperature 36.9°F2.7°C 18.3°F-7.6°C 24.8°F-4.0°C
Dew Point 36.6°F2.6°C 11.7°F-11.3°C 24.1°F-4.4°C
Winds Calm Calm Calm Calm Calm SSWCalm SSW
Wind Gusts -- -- --
Humidity 99% 75% 97%
Pressure 29.77 in1008.1 mb 29.63 in1003.4 mb -
Precipitation 0.00 in0.0 mm - -
Hour Temp Dew Point Humidity Winds Wind Gusts Pressure Precip Precip Rate Daily Precip Total
12:00 AM 24.8°F-4.0°C 24.6°F-4.1°C 99% Calm Calm -- 29.74 in1007.1 mb - 0.00 in0.0 mm 0.00 in0.0 mm
01:00 AM 24.6°F-4.1°C 24.4°F-4.2°C 99% Calm Calm -- 29.74 in1007.1 mb - 0.00 in0.0 mm 0.00 in0.0 mm
02:00 AM 24.6°F-4.1°C 18.7°F-7.4°C 78% Calm Calm -- 29.74 in1007.1 mb - 0.00 in0.0 mm 0.00 in0.0 mm
03:00 AM 24.6°F-4.1°C 24.4°F-4.2°C 99% Calm Calm -- 29.74 in1007.1 mb - 0.00 in0.0 mm 0.00 in0.0 mm
04:00 AM 25.0°F-3.9°C 24.8°F-4.0°C 99% Calm Calm -- 29.73 in1006.8 mb - 0.00 in0.0 mm 0.00 in0.0 mm
05:00 AM 25.3°F-3.7°C 25.1°F-3.8°C 99% Calm Calm -- 29.73 in1006.8 mb - 0.00 in0.0 mm 0.00 in0.0 mm
06:00 AM 25.3°F-3.7°C 25.1°F-3.8°C 99% Calm Calm -- 29.74 in1007.1 mb - 0.00 in0.0 mm 0.00 in0.0 mm
07:00 AM 25.0°F-3.9°C 24.8°F-4.0°C 99% Calm Calm -- 29.74 in1007.1 mb - 0.00 in0.0 mm 0.00 in0.0 mm
08:00 AM 24.8°F-4.0°C 24.6°F-4.1°C 99% Calm Calm -- 29.74 in1007.1 mb - 0.00 in0.0 mm 0.00 in0.0 mm
09:00 AM 25.5°F-3.6°C 25.3°F-3.7°C 99% Calm Calm -- 29.77 in1008.1 mb - 0.00 in0.0 mm 0.00 in0.0 mm
10:00 AM 27.3°F-2.6°C 27.1°F-2.7°C 99% Calm Calm -- 29.77 in1008.1 mb - 0.00 in0.0 mm 0.00 in0.0 mm
11:00 AM 29.3°F-1.5°C 29.1°F-1.6°C 99% Calm Calm -- 29.76 in1007.8 mb - 0.00 in0.0 mm 0.00 in0.0 mm
12:00 PM 36.9°F2.7°C 36.6°F2.6°C 99% Calm Calm -- 29.73 in1006.8 mb - 0.00 in0.0 mm 0.00 in0.0 mm
01:00 PM 30.4°F-0.9°C 30.2°F-1.0°C 99% Calm Calm -- 29.71 in1006.1 mb - 0.00 in0.0 mm 0.00 in0.0 mm
02:00 PM 28.6°F-1.9°C 28.3°F-2.1°C 99% Calm Calm -- 29.69 in1005.4 mb - 0.00 in0.0 mm 0.00 in0.0 mm
03:00 PM 27.0°F-2.8°C 26.8°F-2.9°C 99% Calm Calm -- 29.68 in1005.1 mb - 0.00 in0.0 mm 0.00 in0.0 mm
04:00 PM 25.2°F-3.8°C 25.0°F-3.9°C 99% Calm Calm -- 29.68 in1005.1 mb - 0.00 in0.0 mm 0.00 in0.0 mm
05:00 PM 22.5°F-5.3°C 22.2°F-5.4°C 99% Calm Calm -- 29.68 in1005.1 mb - 0.00 in0.0 mm 0.00 in0.0 mm
06:00 PM 20.5°F-6.4°C 20.3°F-6.5°C 99% Calm Calm -- 29.68 in1005.1 mb - 0.00 in0.0 mm 0.00 in0.0 mm
07:00 PM 19.4°F-7.0°C 19.2°F-7.1°C 99% Calm Calm -- 29.67 in1004.7 mb - 0.00 in0.0 mm 0.00 in0.0 mm
08:00 PM 18.7°F-7.4°C 18.5°F-7.5°C 99% Calm Calm -- 29.66 in1004.4 mb - 0.00 in0.0 mm 0.00 in0.0 mm
09:00 PM 18.3°F-7.6°C 11.7°F-11.3°C 75% Calm Calm -- 29.65 in1004.1 mb - 0.00 in0.0 mm 0.00 in0.0 mm
10:00 PM 19.9°F-6.7°C 19.7°F-6.8°C 99% Calm Calm -- 29.64 in1003.7 mb - 0.00 in0.0 mm 0.00 in0.0 mm
11:00 PM 22.3°F-5.4°C 22.1°F-5.5°C 99% Calm Calm -- 29.63 in1003.4 mb - 0.00 in0.0 mm 0.00 in0.0 mm